This is the latest recevied weather packets stored in our database for station/object BG5CNE-12. If no packets are shown the sender has not sent any weather packets the latest 10 day(s).
| Time | Temp. | Humidity | Pressure | Rain* | Wind** | Luminosity | Snow |
|---|---|---|---|---|---|---|---|
| 1777790152 | 21.11° C | 63% | 1009 hPa | 0 mm | - | - | - |
| 1777784151 | 20° C | 68% | 1014 hPa | 0 mm | - | - | - |
| 1777778150 | 17.78° C | 76% | 1010 hPa | 0 mm | - | - | - |
| 1777766148 | 17.78° C | 93% | 1012 hPa | 0 mm | - | - | - |
| 1777760147 | 17.78° C | 91% | 1006 hPa | 0 mm | - | - | - |
| 1777754146 | 20° C | 80% | 1006 hPa | 0 mm | - | - | - |
| 1777748143 | 20° C | 85% | 1006 hPa | 0 mm | - | - | - |
| 1777742142 | 21.11° C | 83% | 1008 hPa | 0 mm | - | - | - |
| 1777736141 | 21.11° C | 82% | 1005 hPa | 0 mm | - | - | - |
| 1777730140 | 21.11° C | 80% | 1003 hPa | 0 mm | - | - | - |
| 1777724138 | 22.22° C | 75% | 1006 hPa | 0 mm | - | - | - |
| 1777718137 | 22.78° C | 71% | 1004 hPa | 0 mm | - | - | - |
| 1777712136 | 22.78° C | 72% | 1009 hPa | 0 mm | - | - | - |
| 1777706134 | 23.89° C | 62% | 1005 hPa | 0 mm | - | - | - |
| 1777700133 | 25° C | 58% | 1011 hPa | 0 mm | - | - | - |
| 1777694133 | 23.89° C | 57% | 1009 hPa | 0 mm | - | - | - |
| 1777688131 | 22.78° C | 55% | 1014 hPa | 0 mm | - | - | - |
| 1777670128 | 13.89° C | 75% | 1016 hPa | 0 mm | - | - | - |
| 1777664127 | 15° C | 66% | 1015 hPa | 0 mm | - | - | - |
| 1777646123 | 22.22° C | 62% | 1019 hPa | 0 mm | - | - | - |
| 1777640122 | 22.22° C | 73% | 1016 hPa | 0 mm | - | - | - |
| 1777634121 | 20° C | 47% | 1014 hPa | 0 mm | - | - | - |
| 1777622119 | 26.11° C | 30% | 1016 hPa | 0 mm | - | - | - |
| 1777616118 | 25° C | 30% | 1018 hPa | 0 mm | - | - | - |
| 1777610117 | 23.89° C | 39% | 1016 hPa | 0 mm | - | - | - |
* Rain latest hour (hover to see other rain measurements)
** Current wind speed in m/s (hover to see current wind gust speed)